createdAt,value
2023-01-04T00:00:46.840Z,5.00
2023-01-04T00:03:48.583Z,5.01
2023-01-04T00:06:50.202Z,5.01
2023-01-04T00:09:51.714Z,5.01
2023-01-04T00:12:53.535Z,5.03
2023-01-04T00:15:55.227Z,5.05
2023-01-04T00:18:57.694Z,5.04
2023-01-04T00:21:59.500Z,5.04
2023-01-04T00:25:01.079Z,5.05
2023-01-04T00:28:02.883Z,5.05
2023-01-04T00:31:06.339Z,5.06
2023-01-04T00:34:11.177Z,5.07
2023-01-04T00:37:12.934Z,5.05
2023-01-04T00:40:14.528Z,5.04
2023-01-04T00:43:16.090Z,5.05
2023-01-04T00:46:17.685Z,5.04
2023-01-04T00:49:19.464Z,5.04
2023-01-04T00:52:21.004Z,5.04
2023-01-04T00:55:22.627Z,5.03
2023-01-04T00:58:24.293Z,5.04
2023-01-04T01:01:27.358Z,5.07
2023-01-04T01:04:29.230Z,5.08
2023-01-04T01:07:30.805Z,5.08
2023-01-04T01:10:34.565Z,5.08
2023-01-04T01:13:37.786Z,5.07
2023-01-04T01:16:57.658Z,5.07
2023-01-04T01:20:00.474Z,5.06
2023-01-04T01:23:02.036Z,5.06
2023-01-04T01:26:06.760Z,5.05
2023-01-04T01:29:08.313Z,5.06
2023-01-04T01:32:10.055Z,5.09
2023-01-04T01:35:11.622Z,5.10
2023-01-04T01:38:13.299Z,5.11
2023-01-04T01:41:34.294Z,5.11
2023-01-04T01:44:41.940Z,5.13
2023-01-04T01:47:46.768Z,5.15
2023-01-04T01:50:55.820Z,5.16
2023-01-04T01:54:08.989Z,5.19
2023-01-04T01:57:18.263Z,5.20
2023-01-04T02:00:19.991Z,5.22
2023-01-04T02:03:24.281Z,5.24
2023-01-04T02:06:31.158Z,5.25
2023-01-04T02:09:33.518Z,5.26
2023-01-04T02:12:35.164Z,5.27
2023-01-04T02:15:45.937Z,5.29
2023-01-04T02:19:29.816Z,5.30
2023-01-04T02:22:59.868Z,5.30
2023-01-04T02:26:26.215Z,5.29
2023-01-04T02:29:48.954Z,5.30
2023-01-04T02:33:28.034Z,5.31
2023-01-04T02:36:41.233Z,5.31
2023-01-04T02:40:21.058Z,5.32
2023-01-04T02:43:59.117Z,5.31
2023-01-04T02:47:06.754Z,5.29
2023-01-04T02:50:32.677Z,5.29
2023-01-04T02:53:40.149Z,5.29
2023-01-04T02:57:05.201Z,5.31
2023-01-04T03:00:24.005Z,5.29
2023-01-04T03:03:56.479Z,5.29
2023-01-04T03:07:11.506Z,5.28
2023-01-04T03:10:17.904Z,5.26
2023-01-04T03:13:25.480Z,5.22
2023-01-04T03:16:29.110Z,5.24
2023-01-04T03:19:50.500Z,5.23
2023-01-04T03:23:33.032Z,5.21
2023-01-04T03:27:20.800Z,5.19
2023-01-04T03:30:47.133Z,5.18
2023-01-04T03:34:07.748Z,5.19
2023-01-04T03:37:16.448Z,5.19
2023-01-04T03:40:44.079Z,5.18
2023-01-04T03:44:20.226Z,5.18
2023-01-04T03:48:19.089Z,5.18
2023-01-04T03:51:25.847Z,5.19
2023-01-04T03:54:36.148Z,5.20
2023-01-04T03:57:38.396Z,5.20
2023-01-04T04:00:40.035Z,5.21
2023-01-04T04:04:00.044Z,5.23
2023-01-04T04:07:20.393Z,5.22
2023-01-04T04:10:21.938Z,5.22
2023-01-04T04:13:24.110Z,5.22
2023-01-04T04:16:26.319Z,5.24
2023-01-04T04:19:27.926Z,5.26
2023-01-04T04:22:29.476Z,5.28
2023-01-04T04:25:31.292Z,5.28
2023-01-04T04:28:33.673Z,5.28
2023-01-04T04:31:35.268Z,5.29
2023-01-04T04:34:37.361Z,5.31
2023-01-04T04:37:38.980Z,5.32
2023-01-04T04:41:00.775Z,5.34
2023-01-04T04:44:02.541Z,5.36
2023-01-04T04:47:04.133Z,5.36
2023-01-04T04:50:06.102Z,5.39
2023-01-04T04:53:07.911Z,5.41
2023-01-04T04:56:10.553Z,5.44
2023-01-04T04:59:12.168Z,5.50
2023-01-04T05:02:13.862Z,5.54
2023-01-04T05:05:15.593Z,5.56
2023-01-04T05:08:17.168Z,5.57
2023-01-04T05:11:38.728Z,5.59
2023-01-04T05:14:40.250Z,5.60
2023-01-04T05:17:41.791Z,5.62
2023-01-04T05:20:43.493Z,5.64
2023-01-04T05:23:45.468Z,5.67
2023-01-04T05:26:47.019Z,5.71
2023-01-04T05:30:07.253Z,5.74
2023-01-04T05:33:09.648Z,5.79
2023-01-04T05:36:11.334Z,5.83
2023-01-04T05:39:12.925Z,5.90
2023-01-04T05:42:32.758Z,5.95
2023-01-04T05:45:35.412Z,6.01
2023-01-04T05:48:37.002Z,6.03
2023-01-04T05:51:38.549Z,6.05
2023-01-04T05:54:40.633Z,6.07
2023-01-04T05:57:43.023Z,6.10
2023-01-04T06:00:44.594Z,6.10
2023-01-04T06:03:46.216Z,6.14
2023-01-04T06:06:47.936Z,6.17
2023-01-04T06:09:50.020Z,6.24
2023-01-04T06:12:51.672Z,6.29
2023-01-04T06:15:53.299Z,6.34
2023-01-04T06:18:55.006Z,6.40
2023-01-04T06:21:57.172Z,6.44
2023-01-04T06:24:59.314Z,6.50
2023-01-04T06:28:00.894Z,6.54
2023-01-04T06:31:08.624Z,6.58
2023-01-04T06:34:14.693Z,6.62
2023-01-04T06:37:16.749Z,6.65
2023-01-04T06:40:18.313Z,6.68
2023-01-04T06:43:19.872Z,6.72
2023-01-04T06:46:21.640Z,6.75
2023-01-04T06:49:23.298Z,6.81
2023-01-04T06:52:24.931Z,6.85
2023-01-04T06:55:26.508Z,6.89
2023-01-04T06:58:28.248Z,6.93
2023-01-04T07:01:30.317Z,6.96
2023-01-04T07:04:32.098Z,6.99
2023-01-04T07:07:34.569Z,7.03
2023-01-04T07:10:36.750Z,7.06
2023-01-04T07:13:38.363Z,7.08
2023-01-04T07:16:39.968Z,7.10
2023-01-04T07:19:41.568Z,7.13
2023-01-04T07:22:43.321Z,7.15
2023-01-04T07:25:45.139Z,7.38
2023-01-04T07:29:05.421Z,7.40
2023-01-04T07:32:13.508Z,7.40
2023-01-04T07:35:15.577Z,7.42
2023-01-04T07:38:17.120Z,7.42
2023-01-04T07:41:18.669Z,7.41
2023-01-04T07:44:21.774Z,7.41
2023-01-04T07:47:23.450Z,7.42
2023-01-04T07:50:25.003Z,7.42
2023-01-04T07:53:26.619Z,7.42
2023-01-04T07:56:29.554Z,7.44
2023-01-04T07:59:31.406Z,7.45
2023-01-04T08:02:33.158Z,7.48
2023-01-04T08:05:35.076Z,7.50
2023-01-04T08:08:36.905Z,7.51
2023-01-04T08:11:38.862Z,7.53
2023-01-04T08:14:40.707Z,7.55
2023-01-04T08:17:42.208Z,7.56
2023-01-04T08:20:43.754Z,7.57
2023-01-04T08:23:46.611Z,7.59
2023-01-04T08:26:48.521Z,7.61
2023-01-04T08:29:50.360Z,7.64
2023-01-04T08:32:53.667Z,7.67
2023-01-04T08:35:55.304Z,7.67
2023-01-04T08:39:01.406Z,7.69
2023-01-04T08:42:18.049Z,7.72
2023-01-04T08:45:22.208Z,7.74
2023-01-04T08:48:24.799Z,7.73
2023-01-04T08:51:26.828Z,7.75
2023-01-04T08:54:28.402Z,7.77
2023-01-04T08:57:30.172Z,7.81
2023-01-04T09:00:32.057Z,7.84
2023-01-04T09:03:34.743Z,7.87
2023-01-04T09:06:37.543Z,7.88
2023-01-04T09:09:39.448Z,7.90
2023-01-04T09:12:43.116Z,7.91
2023-01-04T09:15:45.097Z,7.94
2023-01-04T09:18:47.329Z,7.95
2023-01-04T09:21:49.107Z,7.97
2023-01-04T09:24:50.683Z,7.98
2023-01-04T09:27:52.252Z,7.99
2023-01-04T09:30:53.924Z,8.01
2023-01-04T09:34:14.024Z,8.02
2023-01-04T09:37:16.608Z,8.02
2023-01-04T09:40:23.191Z,8.05
2023-01-04T09:43:36.222Z,8.08
2023-01-04T09:46:46.641Z,8.10
2023-01-04T09:49:57.787Z,8.13
2023-01-04T09:53:16.746Z,8.15
2023-01-04T09:56:26.802Z,8.17
2023-01-04T09:59:32.746Z,8.19
2023-01-04T10:02:42.364Z,8.21
2023-01-04T10:05:44.325Z,8.23
2023-01-04T10:08:46.197Z,8.27
2023-01-04T10:11:53.504Z,8.29
2023-01-04T10:15:27.047Z,8.32
2023-01-04T10:22:31.435Z,8.33
2023-01-04T10:25:43.392Z,8.34
2023-01-04T10:29:04.025Z,8.36
2023-01-04T10:32:27.067Z,8.37
2023-01-04T10:35:29.805Z,8.39
2023-01-04T10:38:40.011Z,8.41
2023-01-04T10:41:49.076Z,8.41
2023-01-04T10:45:09.396Z,8.43
2023-01-04T10:48:23.375Z,8.45
2023-01-04T10:51:35.636Z,8.47
2023-01-04T10:54:49.030Z,8.48
2023-01-04T10:57:50.658Z,8.48
2023-01-04T11:01:03.923Z,8.51
2023-01-04T11:04:20.874Z,8.54
2023-01-04T11:07:31.789Z,8.56
2023-01-04T11:10:57.436Z,8.57
2023-01-04T11:14:00.316Z,8.61
2023-01-04T11:17:05.717Z,8.64
2023-01-04T11:20:07.861Z,8.64
2023-01-04T11:23:14.779Z,8.67
2023-01-04T11:26:20.875Z,8.69
2023-01-04T11:29:37.888Z,8.70
2023-01-04T11:32:55.085Z,8.71
2023-01-04T11:35:59.589Z,8.72
2023-01-04T11:39:01.977Z,8.74
2023-01-04T11:42:06.068Z,8.77
2023-01-04T11:45:18.229Z,8.78
2023-01-04T11:48:19.889Z,8.78
2023-01-04T11:51:27.276Z,8.80
2023-01-04T11:54:28.817Z,8.81
2023-01-04T11:57:30.402Z,8.83
2023-01-04T12:00:32.028Z,8.83
2023-01-04T12:03:39.001Z,8.84
2023-01-04T12:07:05.306Z,8.85
2023-01-04T12:10:27.027Z,8.85
2023-01-04T12:13:30.096Z,8.85
2023-01-04T12:16:31.630Z,8.85
2023-01-04T12:19:36.044Z,8.88
2023-01-04T12:22:40.892Z,8.88
2023-01-04T12:25:49.064Z,8.90
2023-01-04T12:29:10.956Z,8.91
2023-01-04T12:32:12.533Z,8.94
2023-01-04T12:35:51.692Z,8.94
2023-01-04T12:38:56.035Z,8.95
2023-01-04T12:42:00.809Z,8.96
2023-01-04T12:45:12.787Z,8.98
2023-01-04T12:48:53.164Z,9.00
2023-01-04T12:52:30.546Z,9.02
2023-01-04T12:55:31.541Z,9.03
2023-01-04T13:02:19.695Z,9.06
2023-01-04T13:08:44.703Z,9.06
2023-01-04T13:12:18.962Z,9.02
2023-01-04T13:16:01.479Z,9.00
2023-01-04T13:19:09.563Z,8.97
2023-01-04T13:22:23.428Z,8.93
2023-01-04T13:25:28.611Z,8.90
2023-01-04T13:28:30.123Z,8.86
2023-01-04T13:31:31.948Z,8.84
2023-01-04T13:34:47.294Z,8.84
2023-01-04T13:37:51.233Z,8.85
2023-01-04T13:40:52.977Z,8.88
2023-01-04T13:44:20.167Z,8.91
2023-01-04T13:47:22.057Z,8.91
2023-01-04T13:50:32.370Z,8.93
2023-01-04T13:53:33.980Z,8.95
2023-01-04T13:56:35.735Z,9.00
2023-01-04T13:59:37.733Z,9.05
2023-01-04T14:02:39.902Z,9.07
2023-01-04T14:05:48.072Z,9.10
2023-01-04T14:09:01.023Z,9.11
2023-01-04T14:12:14.065Z,9.11
2023-01-04T14:15:25.633Z,9.13
2023-01-04T14:18:31.701Z,9.15
2023-01-04T14:21:36.427Z,9.16
2023-01-04T14:28:22.105Z,9.18
2023-01-04T14:31:30.064Z,9.17
2023-01-04T14:34:36.107Z,9.19
2023-01-04T14:37:37.793Z,9.19
2023-01-04T14:40:41.115Z,9.20
2023-01-04T14:43:49.644Z,9.23
2023-01-04T14:46:56.210Z,9.21
2023-01-04T14:49:57.817Z,9.21
2023-01-04T14:52:59.417Z,9.21
2023-01-04T14:56:00.956Z,9.21
2023-01-04T14:59:02.786Z,9.21
2023-01-04T15:02:04.664Z,9.20
2023-01-04T15:05:06.470Z,9.20
2023-01-04T15:08:10.808Z,9.20
2023-01-04T15:11:13.619Z,9.19
2023-01-04T15:14:15.341Z,9.17
2023-01-04T15:17:16.978Z,9.16
2023-01-04T15:20:18.770Z,9.17
2023-01-04T15:23:20.478Z,9.29
2023-01-04T15:26:22.255Z,9.28
2023-01-04T15:29:23.836Z,9.29
2023-01-04T15:32:25.385Z,9.26
2023-01-04T15:35:26.949Z,9.26
2023-01-04T15:38:28.740Z,9.26
2023-01-04T15:41:48.829Z,9.28
2023-01-04T15:44:50.440Z,9.29
2023-01-04T15:47:52.078Z,9.29
2023-01-04T15:50:53.638Z,9.29
2023-01-04T15:53:56.641Z,9.29
2023-01-04T15:56:58.334Z,9.30
2023-01-04T15:59:59.887Z,9.30
2023-01-04T16:03:01.653Z,9.31
2023-01-04T16:06:12.742Z,9.32
2023-01-04T16:09:14.641Z,9.32
2023-01-04T16:12:34.421Z,9.32
2023-01-04T16:15:38.162Z,9.31
2023-01-04T16:18:45.275Z,9.31
2023-01-04T16:21:46.828Z,9.28
2023-01-04T16:28:10.015Z,9.29
2023-01-04T16:31:12.075Z,9.27
2023-01-04T16:34:14.540Z,9.27
2023-01-04T16:37:16.089Z,9.27
2023-01-04T16:40:17.723Z,9.27
2023-01-04T16:43:19.309Z,9.25
2023-01-04T16:46:26.527Z,9.25
2023-01-04T16:49:28.093Z,9.24
2023-01-04T16:52:30.119Z,9.22
2023-01-04T16:55:31.667Z,9.23
2023-01-04T16:58:33.311Z,9.24
2023-01-04T17:01:40.462Z,9.22
2023-01-04T17:04:53.133Z,9.21
2023-01-04T17:07:54.691Z,9.18
2023-01-04T17:11:01.647Z,9.15
2023-01-04T17:14:17.746Z,9.15
2023-01-04T17:17:19.258Z,9.14
2023-01-04T17:20:20.851Z,9.13
2023-01-04T17:23:23.383Z,9.11
2023-01-04T17:26:28.898Z,9.08
2023-01-04T17:29:30.454Z,9.06
2023-01-04T17:32:32.348Z,9.05
2023-01-04T17:35:38.333Z,9.04
2023-01-04T17:38:40.322Z,9.02
2023-01-04T17:41:42.358Z,9.00
2023-01-04T17:44:46.121Z,8.99
2023-01-04T17:47:47.846Z,9.01
2023-01-04T17:50:49.558Z,9.02
2023-01-04T17:53:56.730Z,9.00
2023-01-04T17:56:58.322Z,9.00
2023-01-04T18:00:00.189Z,9.00
2023-01-04T18:03:02.111Z,8.98
2023-01-04T18:09:27.274Z,8.98
2023-01-04T18:12:31.600Z,8.95
2023-01-04T18:15:36.144Z,8.93
2023-01-04T18:18:45.594Z,8.90
2023-01-04T18:21:47.154Z,8.88
2023-01-04T18:24:48.717Z,8.87
2023-01-04T18:27:50.617Z,8.90
2023-01-04T18:30:52.278Z,8.91
2023-01-04T18:33:56.070Z,8.91
2023-01-04T18:36:57.650Z,8.86
2023-01-04T18:39:59.252Z,8.82
2023-01-04T18:43:01.025Z,8.77
2023-01-04T18:46:08.238Z,8.76
2023-01-04T18:49:09.802Z,8.73
2023-01-04T18:52:11.873Z,8.70
2023-01-04T18:55:13.696Z,8.68
2023-01-04T18:58:15.385Z,8.65
2023-01-04T19:01:18.805Z,8.64
2023-01-04T19:04:20.433Z,8.62
2023-01-04T19:07:22.020Z,8.59
2023-01-04T19:10:23.636Z,8.56
2023-01-04T19:13:25.201Z,8.51
2023-01-04T19:16:30.872Z,8.47
2023-01-04T19:19:33.495Z,8.39
2023-01-04T19:22:35.417Z,8.33
2023-01-04T19:25:39.344Z,8.28
2023-01-04T19:28:41.132Z,8.24
2023-01-04T19:31:42.687Z,8.20
2023-01-04T19:34:44.442Z,8.19
2023-01-04T19:37:46.086Z,8.18
2023-01-04T19:40:55.709Z,8.18
2023-01-04T19:43:57.222Z,8.16
2023-01-04T19:46:58.773Z,8.17
2023-01-04T19:50:00.380Z,8.17
2023-01-04T19:53:02.122Z,8.17
2023-01-04T19:56:04.058Z,8.17
2023-01-04T19:59:06.829Z,8.17
2023-01-04T20:02:11.827Z,8.18
2023-01-04T20:05:13.549Z,8.17
2023-01-04T20:08:15.263Z,8.17
2023-01-04T20:11:16.925Z,8.18
2023-01-04T20:14:18.595Z,8.20
2023-01-04T20:17:20.129Z,8.20
2023-01-04T20:20:22.197Z,8.21
2023-01-04T20:23:24.080Z,8.24
2023-01-04T20:26:25.676Z,8.24
2023-01-04T20:29:27.275Z,8.24
2023-01-04T20:32:28.865Z,8.25
2023-01-04T20:35:31.373Z,8.25
2023-01-04T20:38:39.956Z,8.24
2023-01-04T20:42:01.961Z,8.23
2023-01-04T20:45:03.669Z,8.21
2023-01-04T20:48:05.472Z,8.21
2023-01-04T20:51:15.507Z,8.20
2023-01-04T20:54:17.160Z,8.19
2023-01-04T20:57:18.760Z,8.20
2023-01-04T21:00:20.421Z,8.20
2023-01-04T21:03:21.966Z,8.20
2023-01-04T21:06:24.898Z,8.18
2023-01-04T21:09:26.677Z,8.17
2023-01-04T21:12:28.247Z,8.18
2023-01-04T21:15:29.944Z,8.17
2023-01-04T21:18:32.480Z,8.15
2023-01-04T21:21:34.339Z,8.14
2023-01-04T21:24:36.005Z,8.13
2023-01-04T21:27:37.635Z,8.11
2023-01-04T21:30:41.045Z,8.10
2023-01-04T21:33:47.277Z,8.09
2023-01-04T21:36:49.107Z,8.08
2023-01-04T21:39:50.814Z,8.07
2023-01-04T21:42:52.340Z,8.05
2023-01-04T21:45:54.113Z,8.02
2023-01-04T21:48:58.213Z,8.02
2023-01-04T21:51:59.820Z,8.02
2023-01-04T21:55:01.369Z,8.01
2023-01-04T21:58:03.219Z,7.99
2023-01-04T22:01:09.992Z,8.00
2023-01-04T22:04:11.688Z,8.02
2023-01-04T22:07:13.807Z,8.02
2023-01-04T22:10:15.465Z,8.00
2023-01-04T22:13:17.002Z,7.99
2023-01-04T22:16:18.687Z,7.97
2023-01-04T22:19:20.446Z,7.95
2023-01-04T22:22:22.032Z,7.92
2023-01-04T22:25:23.671Z,7.92
2023-01-04T22:28:28.533Z,7.92
2023-01-04T22:31:33.333Z,7.91
2023-01-04T22:34:34.955Z,7.91
2023-01-04T22:37:36.561Z,7.91
2023-01-04T22:40:41.627Z,7.91
2023-01-04T22:43:43.816Z,7.88
2023-01-04T22:46:45.444Z,7.87
2023-01-04T22:49:47.858Z,7.89
2023-01-04T22:52:53.289Z,7.92
2023-01-04T22:59:16.571Z,7.93
2023-01-04T23:02:18.115Z,7.92
2023-01-04T23:05:19.710Z,7.92
2023-01-04T23:08:21.250Z,7.92
2023-01-04T23:11:23.474Z,7.92
2023-01-04T23:14:25.129Z,7.91
2023-01-04T23:17:26.679Z,8.12
2023-01-04T23:20:28.289Z,8.10
2023-01-04T23:23:29.911Z,8.08
2023-01-04T23:26:33.086Z,8.05
2023-01-04T23:29:34.613Z,8.00
2023-01-04T23:32:36.164Z,7.97
2023-01-04T23:35:37.974Z,7.95
2023-01-04T23:38:40.921Z,7.93
2023-01-04T23:41:46.544Z,7.90
2023-01-04T23:44:48.523Z,7.87
2023-01-04T23:47:50.093Z,7.86
2023-01-04T23:50:56.562Z,7.83
2023-01-04T23:53:58.165Z,7.81
2023-01-04T23:57:00.371Z,7.80
